createdAt,value
2023-10-09T00:02:11.820Z,2.20
2023-10-09T00:04:42.760Z,2.07
2023-10-09T00:07:12.569Z,2.27
2023-10-09T00:09:48.343Z,2.33
2023-10-09T00:12:23.511Z,2.27
2023-10-09T00:14:57.597Z,2.50
2023-10-09T00:17:32.138Z,2.30
2023-10-09T00:20:09.195Z,2.47
2023-10-09T00:22:42.954Z,2.50
2023-10-09T00:25:13.991Z,2.40
2023-10-09T00:27:47.163Z,2.37
2023-10-09T00:30:19.070Z,2.20
2023-10-09T00:32:53.678Z,2.60
2023-10-09T00:35:47.638Z,2.20
2023-10-09T00:38:24.929Z,2.47
2023-10-09T00:41:10.875Z,2.47
2023-10-09T00:43:44.233Z,2.43
2023-10-09T00:46:24.894Z,2.53
2023-10-09T00:48:56.742Z,2.20
2023-10-09T00:51:25.603Z,2.40
2023-10-09T00:53:55.890Z,2.43
2023-10-09T00:56:39.521Z,2.40
2023-10-09T00:59:15.239Z,2.43
2023-10-09T01:01:49.741Z,2.47
2023-10-09T01:04:19.101Z,2.60
2023-10-09T01:06:54.514Z,2.50
2023-10-09T01:09:23.844Z,2.50
2023-10-09T01:12:04.769Z,2.23
2023-10-09T01:14:37.234Z,2.27
2023-10-09T01:17:10.121Z,2.37
2023-10-09T01:19:38.020Z,2.30
2023-10-09T01:22:13.684Z,2.17
2023-10-09T01:24:43.089Z,2.03
2023-10-09T01:27:15.889Z,2.20
2023-10-09T01:29:44.910Z,2.10
2023-10-09T01:32:17.850Z,2.30
2023-10-09T01:34:49.365Z,2.23
2023-10-09T01:37:19.882Z,2.27
2023-10-09T01:39:51.930Z,1.93
2023-10-09T01:42:34.903Z,2.03
2023-10-09T01:45:12.053Z,2.10
2023-10-09T01:47:39.984Z,2.27
2023-10-09T01:50:12.432Z,2.07
2023-10-09T01:52:40.176Z,2.40
2023-10-09T01:55:14.573Z,2.23
2023-10-09T01:57:46.125Z,2.17
2023-10-09T02:00:25.472Z,2.57
2023-10-09T02:02:53.296Z,2.50
2023-10-09T02:05:26.474Z,2.30
2023-10-09T02:07:54.330Z,2.40
2023-10-09T02:10:33.034Z,2.23
2023-10-09T02:13:07.811Z,2.27
2023-10-09T02:15:47.623Z,2.27
2023-10-09T02:18:27.044Z,2.30
2023-10-09T02:21:02.386Z,2.30
2023-10-09T02:23:40.586Z,2.40
2023-10-09T02:26:18.355Z,2.20
2023-10-09T02:28:53.630Z,2.80
2023-10-09T02:31:24.254Z,2.30
2023-10-09T02:33:54.631Z,2.33
2023-10-09T02:36:22.651Z,2.20
2023-10-09T02:38:54.213Z,2.33
2023-10-09T02:41:28.935Z,2.60
2023-10-09T02:43:57.385Z,2.63
2023-10-09T02:46:31.978Z,2.50
2023-10-09T02:48:59.886Z,2.20
2023-10-09T02:51:37.557Z,2.07
2023-10-09T02:54:27.908Z,2.97
2023-10-09T02:57:06.410Z,2.43
2023-10-09T02:59:34.257Z,2.20
2023-10-09T03:02:01.822Z,2.50
2023-10-09T03:04:32.327Z,2.60
2023-10-09T03:07:00.684Z,2.80
2023-10-09T03:09:29.591Z,2.77
2023-10-09T03:12:04.749Z,2.47
2023-10-09T03:14:33.460Z,2.43
2023-10-09T03:17:01.417Z,2.60
2023-10-09T03:19:30.297Z,2.63
2023-10-09T03:21:58.991Z,2.77
2023-10-09T03:24:28.482Z,2.80
2023-10-09T03:26:57.069Z,2.50
2023-10-09T03:29:28.547Z,2.53
2023-10-09T03:31:57.909Z,2.70
2023-10-09T03:34:26.136Z,2.73
2023-10-09T03:37:05.094Z,2.57
2023-10-09T03:39:39.792Z,3.00
2023-10-09T03:42:20.106Z,3.00
2023-10-09T03:44:53.195Z,3.60
2023-10-09T03:47:23.762Z,2.73
2023-10-09T03:49:54.228Z,2.73
2023-10-09T03:52:26.445Z,3.20
2023-10-09T03:54:55.729Z,2.77
2023-10-09T03:57:24.813Z,3.10
2023-10-09T03:59:54.613Z,3.30
2023-10-09T04:02:23.781Z,3.50
2023-10-09T04:04:51.993Z,2.90
2023-10-09T04:07:19.937Z,3.27
2023-10-09T04:09:49.654Z,3.40
2023-10-09T04:12:26.889Z,3.23
2023-10-09T04:15:02.590Z,3.13
2023-10-09T04:17:36.793Z,3.20
2023-10-09T04:20:23.948Z,3.30
2023-10-09T04:23:01.400Z,3.50
2023-10-09T04:25:30.610Z,3.60
2023-10-09T04:28:10.275Z,3.27
2023-10-09T04:30:44.387Z,3.23
2023-10-09T04:33:29.588Z,3.50
2023-10-09T04:36:17.014Z,3.30
2023-10-09T04:38:56.814Z,3.60
2023-10-09T04:41:33.384Z,3.30
2023-10-09T04:44:19.965Z,3.43
2023-10-09T04:47:04.042Z,3.57
2023-10-09T04:49:35.453Z,3.30
2023-10-09T04:52:07.517Z,3.30
2023-10-09T04:55:01.232Z,3.60
2023-10-09T04:57:28.569Z,3.57
2023-10-09T04:59:59.570Z,3.43
2023-10-09T05:02:37.580Z,3.60
2023-10-09T05:05:37.455Z,3.67
2023-10-09T05:08:20.283Z,3.43
2023-10-09T05:11:06.758Z,3.77
2023-10-09T05:13:45.394Z,3.67
2023-10-09T05:16:17.326Z,3.43
2023-10-09T05:18:57.331Z,3.40
2023-10-09T05:21:37.782Z,3.50
2023-10-09T05:24:20.216Z,3.60
2023-10-09T05:26:52.278Z,3.77
2023-10-09T05:29:36.240Z,3.80
2023-10-09T05:32:06.811Z,3.77
2023-10-09T05:34:35.908Z,3.47
2023-10-09T05:37:18.675Z,3.77
2023-10-09T05:40:06.522Z,4.03
2023-10-09T05:42:44.384Z,4.13
2023-10-09T05:45:52.963Z,4.00
2023-10-09T05:48:46.600Z,3.90
2023-10-09T05:51:36.084Z,4.67
2023-10-09T05:54:21.319Z,4.37
2023-10-09T05:57:31.417Z,4.27
2023-10-09T06:00:28.400Z,4.37
2023-10-09T06:03:13.644Z,4.17
2023-10-09T06:05:52.531Z,4.80
2023-10-09T06:08:28.528Z,4.57
2023-10-09T06:11:07.113Z,5.10
2023-10-09T06:13:47.754Z,4.67
2023-10-09T06:16:42.571Z,4.90
2023-10-09T06:19:14.508Z,4.37
2023-10-09T06:22:02.028Z,4.63
2023-10-09T06:24:42.680Z,5.77
2023-10-09T06:27:25.524Z,5.60
2023-10-09T06:29:52.462Z,5.77
2023-10-09T06:32:39.330Z,5.90
2023-10-09T06:35:19.957Z,6.20
2023-10-09T06:38:23.288Z,6.10
2023-10-09T06:41:10.569Z,6.63
2023-10-09T06:43:48.823Z,7.40
2023-10-09T06:46:50.024Z,7.73
2023-10-09T06:49:30.787Z,7.93
2023-10-09T06:52:14.724Z,7.43
2023-10-09T06:54:50.723Z,6.93
2023-10-09T06:57:44.972Z,7.10
2023-10-09T07:00:31.337Z,6.83
2023-10-09T07:03:01.707Z,5.77
2023-10-09T07:05:39.282Z,5.77
2023-10-09T07:08:27.000Z,5.20
2023-10-09T07:11:13.625Z,7.10
2023-10-09T07:13:42.700Z,7.03
2023-10-09T07:16:27.909Z,6.13
2023-10-09T07:18:56.201Z,6.70
2023-10-09T07:21:30.048Z,6.57
2023-10-09T07:24:05.661Z,5.90
2023-10-09T07:26:39.100Z,6.03
2023-10-09T07:29:22.740Z,6.17
2023-10-09T07:31:58.261Z,5.87
2023-10-09T07:34:49.422Z,6.00
2023-10-09T07:37:20.285Z,5.70
2023-10-09T07:39:57.985Z,6.00
2023-10-09T07:42:34.940Z,6.43
2023-10-09T07:45:14.006Z,5.80
2023-10-09T07:48:04.729Z,6.40
2023-10-09T07:50:42.033Z,5.83
2023-10-09T07:53:20.080Z,7.07
2023-10-09T07:55:55.214Z,7.10
2023-10-09T07:58:26.208Z,7.93
2023-10-09T08:01:09.336Z,7.67
2023-10-09T08:03:37.512Z,8.30
2023-10-09T08:06:25.693Z,9.07
2023-10-09T08:09:19.683Z,8.17
2023-10-09T08:12:15.265Z,7.93
2023-10-09T08:14:46.845Z,7.80
2023-10-09T08:17:16.890Z,8.00
2023-10-09T08:19:59.057Z,7.57
2023-10-09T08:22:51.364Z,8.37
2023-10-09T08:25:29.135Z,7.90
2023-10-09T08:27:58.476Z,7.90
2023-10-09T08:30:42.188Z,8.07
2023-10-09T08:36:03.066Z,8.13
2023-10-09T08:38:34.540Z,7.80
2023-10-09T08:41:17.149Z,8.67
2023-10-09T08:43:52.210Z,7.07
2023-10-09T08:46:24.501Z,7.70
2023-10-09T08:48:55.318Z,8.30
2023-10-09T08:51:24.190Z,7.67
2023-10-09T08:53:53.302Z,7.33
2023-10-09T08:56:24.175Z,7.77
2023-10-09T08:58:53.643Z,7.50
2023-10-09T09:01:22.868Z,7.27
2023-10-09T09:03:51.795Z,7.40
2023-10-09T09:06:21.312Z,7.03
2023-10-09T09:08:49.499Z,7.47
2023-10-09T09:11:24.044Z,7.17
2023-10-09T09:14:05.904Z,7.30
2023-10-09T09:16:36.322Z,6.93
2023-10-09T09:19:06.041Z,7.20
2023-10-09T09:21:41.666Z,7.30
2023-10-09T09:24:27.684Z,7.00
2023-10-09T09:27:01.741Z,7.57
2023-10-09T09:29:41.132Z,6.73
2023-10-09T09:32:17.997Z,7.50
2023-10-09T09:34:49.065Z,8.97
2023-10-09T09:37:22.993Z,8.23
2023-10-09T09:39:55.801Z,8.30
2023-10-09T09:42:28.312Z,8.33
2023-10-09T09:44:58.354Z,7.87
2023-10-09T09:47:28.162Z,7.73
2023-10-09T09:50:00.620Z,7.40
2023-10-09T09:52:39.345Z,7.33
2023-10-09T09:55:15.470Z,7.20
2023-10-09T09:57:52.713Z,7.00
2023-10-09T10:00:31.964Z,7.20
2023-10-09T10:03:04.213Z,7.60
2023-10-09T10:05:32.911Z,7.20
2023-10-09T10:08:02.629Z,6.63
2023-10-09T10:10:40.822Z,6.33
2023-10-09T10:13:15.923Z,6.27
2023-10-09T10:16:14.461Z,6.63
2023-10-09T10:19:00.721Z,6.60
2023-10-09T10:21:39.826Z,6.30
2023-10-09T10:24:54.022Z,6.37
2023-10-09T10:27:27.400Z,6.80
2023-10-09T10:30:37.976Z,6.40
2023-10-09T10:33:13.631Z,6.77
2023-10-09T10:35:47.456Z,6.50
2023-10-09T10:38:25.829Z,6.13
2023-10-09T10:41:00.824Z,6.10
2023-10-09T10:43:36.067Z,6.07
2023-10-09T10:46:07.558Z,6.63
2023-10-09T10:48:39.667Z,6.67
2023-10-09T10:51:07.759Z,6.27
2023-10-09T10:53:48.597Z,7.27
2023-10-09T10:56:20.104Z,7.37
2023-10-09T10:59:12.900Z,7.53
2023-10-09T11:01:57.586Z,6.50
2023-10-09T11:04:29.030Z,6.73
2023-10-09T11:07:04.472Z,7.33
2023-10-09T11:09:59.446Z,6.80
2023-10-09T11:12:39.282Z,6.73
2023-10-09T11:15:09.954Z,6.77
2023-10-09T11:17:39.830Z,6.80
2023-10-09T11:20:26.591Z,6.33
2023-10-09T11:23:16.072Z,6.63
2023-10-09T11:26:00.912Z,6.83
2023-10-09T11:28:31.352Z,6.33
2023-10-09T11:31:08.873Z,6.43
2023-10-09T11:33:46.274Z,6.13
2023-10-09T11:36:13.936Z,6.20
2023-10-09T11:38:44.787Z,6.97
2023-10-09T11:41:23.903Z,6.17
2023-10-09T11:43:59.006Z,6.13
2023-10-09T11:46:38.474Z,6.70
2023-10-09T11:49:30.983Z,6.30
2023-10-09T11:52:25.900Z,5.67
2023-10-09T11:54:57.400Z,5.90
2023-10-09T11:57:31.569Z,6.20
2023-10-09T12:00:01.618Z,5.80
2023-10-09T12:02:29.552Z,6.83
2023-10-09T12:04:58.176Z,6.70
2023-10-09T12:07:28.815Z,6.40
2023-10-09T12:09:57.711Z,6.00
2023-10-09T12:12:27.649Z,5.87
2023-10-09T12:14:55.409Z,6.07
2023-10-09T12:17:27.312Z,5.47
2023-10-09T12:19:57.591Z,6.03
2023-10-09T12:22:28.734Z,5.60
2023-10-09T12:24:57.516Z,5.20
2023-10-09T12:27:25.302Z,5.67
2023-10-09T12:29:52.910Z,5.50
2023-10-09T12:32:22.038Z,6.00
2023-10-09T12:34:52.312Z,5.37
2023-10-09T12:37:21.870Z,5.37
2023-10-09T12:39:50.722Z,5.03
2023-10-09T12:42:18.381Z,4.97
2023-10-09T12:44:46.109Z,5.17
2023-10-09T12:47:13.885Z,5.70
2023-10-09T12:49:42.242Z,5.20
2023-10-09T12:52:16.536Z,5.67
2023-10-09T12:54:47.308Z,5.00
2023-10-09T12:57:15.803Z,5.20
2023-10-09T12:59:46.464Z,5.03
2023-10-09T13:02:29.337Z,5.13
2023-10-09T13:04:57.571Z,4.90
2023-10-09T13:07:26.601Z,4.80
2023-10-09T13:10:08.229Z,4.90
2023-10-09T13:12:39.479Z,5.00
2023-10-09T13:15:10.376Z,4.53
2023-10-09T13:17:38.656Z,4.83
2023-10-09T13:20:13.808Z,5.13
2023-10-09T13:22:43.657Z,4.47
2023-10-09T13:25:31.245Z,4.57
2023-10-09T13:28:04.541Z,4.83
2023-10-09T13:30:40.113Z,4.23
2023-10-09T13:33:07.905Z,4.57
2023-10-09T13:35:39.907Z,4.70
2023-10-09T13:38:11.002Z,4.67
2023-10-09T13:40:38.864Z,4.80
2023-10-09T13:43:07.306Z,4.47
2023-10-09T13:45:40.403Z,4.55
2023-10-09T13:48:12.637Z,4.07
2023-10-09T13:50:43.877Z,4.72
2023-10-09T13:53:13.781Z,4.57
2023-10-09T13:55:44.927Z,4.47
2023-10-09T13:58:15.098Z,4.23
2023-10-09T14:00:47.548Z,4.50
2023-10-09T14:03:16.071Z,4.20
2023-10-09T14:05:57.823Z,4.70
2023-10-09T14:08:30.109Z,4.40
2023-10-09T14:10:58.527Z,4.55
2023-10-09T14:13:29.472Z,4.65
2023-10-09T14:16:00.822Z,5.05
2023-10-09T14:18:30.954Z,4.97
2023-10-09T14:20:58.728Z,4.63
2023-10-09T14:23:33.288Z,4.82
2023-10-09T14:26:03.151Z,4.47
2023-10-09T14:28:31.156Z,4.50
2023-10-09T14:31:00.712Z,5.37
2023-10-09T14:33:29.028Z,4.50
2023-10-09T14:35:57.472Z,5.03
2023-10-09T14:38:33.139Z,5.10
2023-10-09T14:41:03.485Z,5.17
2023-10-09T14:43:34.691Z,4.63
2023-10-09T14:46:06.068Z,4.97
2023-10-09T14:48:38.445Z,5.17
2023-10-09T14:51:07.633Z,5.10
2023-10-09T14:53:35.852Z,4.60
2023-10-09T14:56:10.185Z,4.90
2023-10-09T14:58:40.681Z,4.40
2023-10-09T15:01:13.819Z,4.17
2023-10-09T15:03:44.251Z,4.40
2023-10-09T15:06:12.703Z,4.30
2023-10-09T15:08:41.090Z,4.10
2023-10-09T15:11:10.390Z,4.67
2023-10-09T15:13:40.712Z,4.47
2023-10-09T15:16:09.224Z,4.07
2023-10-09T15:18:38.612Z,4.03
2023-10-09T15:21:07.365Z,4.03
2023-10-09T15:23:37.434Z,4.00
2023-10-09T15:26:08.129Z,4.50
2023-10-09T15:28:37.844Z,4.30
2023-10-09T15:31:12.212Z,3.92
2023-10-09T15:33:40.934Z,3.80
2023-10-09T15:36:13.706Z,3.70
2023-10-09T15:38:41.601Z,4.03
2023-10-09T15:41:09.346Z,3.55
2023-10-09T15:43:39.777Z,3.40
2023-10-09T15:46:15.519Z,3.58
2023-10-09T15:48:44.046Z,3.90
2023-10-09T15:51:15.310Z,3.85
2023-10-09T15:53:44.426Z,3.90
2023-10-09T15:56:14.077Z,3.95
2023-10-09T15:58:45.003Z,3.67
2023-10-09T16:01:15.025Z,3.73
2023-10-09T16:03:44.386Z,3.27
2023-10-09T16:06:13.365Z,3.90
2023-10-09T16:08:42.958Z,3.73
2023-10-09T16:11:12.462Z,3.50
2023-10-09T16:13:43.445Z,3.13
2023-10-09T16:16:11.470Z,3.67
2023-10-09T16:18:40.220Z,3.70
2023-10-09T16:21:09.495Z,3.87
2023-10-09T16:23:38.351Z,4.00
2023-10-09T16:26:08.214Z,4.33
2023-10-09T16:28:37.485Z,3.77
2023-10-09T16:31:13.568Z,3.50
2023-10-09T16:33:41.383Z,3.70
2023-10-09T16:36:09.046Z,4.10
2023-10-09T16:38:40.341Z,3.77
2023-10-09T16:41:09.932Z,3.90
2023-10-09T16:43:41.510Z,3.97
2023-10-09T16:46:10.748Z,3.80
2023-10-09T16:48:40.666Z,3.67
2023-10-09T16:51:09.819Z,3.80
2023-10-09T16:53:39.725Z,3.63
2023-10-09T16:56:11.557Z,4.07
2023-10-09T16:58:39.904Z,3.80
2023-10-09T17:01:11.762Z,3.97
2023-10-09T17:03:43.670Z,3.57
2023-10-09T17:06:12.921Z,4.10
2023-10-09T17:08:43.430Z,3.97
2023-10-09T17:11:13.854Z,3.40
2023-10-09T17:13:45.545Z,3.93
2023-10-09T17:16:18.673Z,3.87
2023-10-09T17:18:48.688Z,3.90
2023-10-09T17:21:17.235Z,3.50
2023-10-09T17:23:48.064Z,4.23
2023-10-09T17:26:19.577Z,3.50
2023-10-09T17:28:48.132Z,3.80
2023-10-09T17:31:21.065Z,3.83
2023-10-09T17:33:50.304Z,3.97
2023-10-09T17:36:18.556Z,3.87
2023-10-09T17:38:50.838Z,3.67
2023-10-09T17:41:21.213Z,3.63
2023-10-09T17:43:49.099Z,3.67
2023-10-09T17:46:18.844Z,4.10
2023-10-09T17:48:47.144Z,4.07
2023-10-09T17:51:19.212Z,3.57
2023-10-09T17:53:47.890Z,3.50
2023-10-09T17:56:15.830Z,4.07
2023-10-09T17:58:51.003Z,4.20
2023-10-09T18:01:20.113Z,4.03
2023-10-09T18:03:48.255Z,4.20
2023-10-09T18:06:18.313Z,3.93
2023-10-09T18:08:47.975Z,3.80
2023-10-09T18:11:16.323Z,4.13
2023-10-09T18:13:44.325Z,3.57
2023-10-09T18:16:14.917Z,3.70
2023-10-09T18:18:44.614Z,4.00
2023-10-09T18:21:12.500Z,3.60
2023-10-09T18:23:45.869Z,3.70
2023-10-09T18:26:15.105Z,3.70
2023-10-09T18:28:43.122Z,4.10
2023-10-09T18:31:14.989Z,4.23
2023-10-09T18:33:43.372Z,4.20
2023-10-09T18:36:12.561Z,3.73
2023-10-09T18:38:45.805Z,4.00
2023-10-09T18:41:14.443Z,3.80
2023-10-09T18:43:43.263Z,4.00
2023-10-09T18:46:12.313Z,4.07
2023-10-09T18:48:40.782Z,3.67
2023-10-09T18:51:09.593Z,4.10
2023-10-09T18:53:37.308Z,4.00
2023-10-09T18:56:07.092Z,3.53
2023-10-09T18:58:34.880Z,4.43
2023-10-09T19:01:03.801Z,4.33
2023-10-09T19:03:32.455Z,5.27
2023-10-09T19:06:00.206Z,4.67
2023-10-09T19:08:30.581Z,4.03
2023-10-09T19:11:01.539Z,4.40
2023-10-09T19:13:31.589Z,3.83
2023-10-09T19:15:59.392Z,3.97
2023-10-09T19:18:27.333Z,3.80
2023-10-09T19:20:55.499Z,3.70
2023-10-09T19:23:23.545Z,3.90
2023-10-09T19:25:54.167Z,3.60
2023-10-09T19:28:21.895Z,3.83
2023-10-09T19:30:51.664Z,4.00
2023-10-09T19:33:19.456Z,4.60
2023-10-09T19:35:47.473Z,3.90
2023-10-09T19:38:15.193Z,3.97
2023-10-09T19:40:45.615Z,3.80
2023-10-09T19:43:16.326Z,4.13
2023-10-09T19:45:44.083Z,3.57
2023-10-09T19:48:13.302Z,4.30
2023-10-09T19:50:40.978Z,4.20
2023-10-09T19:53:08.726Z,4.27
2023-10-09T19:55:36.565Z,4.40
2023-10-09T19:58:05.448Z,4.47
2023-10-09T20:00:33.236Z,4.10
2023-10-09T20:03:00.932Z,4.50
2023-10-09T20:05:30.166Z,4.37
2023-10-09T20:08:00.532Z,4.43
2023-10-09T20:10:28.316Z,4.27
2023-10-09T20:12:57.067Z,4.60
2023-10-09T20:15:26.561Z,4.57
2023-10-09T20:17:54.294Z,4.20
2023-10-09T20:20:23.755Z,4.37
2023-10-09T20:22:54.189Z,4.20
2023-10-09T20:25:23.965Z,4.57
2023-10-09T20:27:53.683Z,4.37
2023-10-09T20:30:25.230Z,3.97
2023-10-09T20:32:54.086Z,4.63
2023-10-09T20:35:27.635Z,4.27
2023-10-09T20:38:02.887Z,4.37
2023-10-09T20:40:31.172Z,4.90
2023-10-09T20:42:58.937Z,4.40
2023-10-09T20:45:26.762Z,4.30
2023-10-09T20:47:56.880Z,4.67
2023-10-09T20:50:26.868Z,4.40
2023-10-09T20:52:56.344Z,4.70
2023-10-09T20:55:25.067Z,4.23
2023-10-09T20:57:57.618Z,4.40
2023-10-09T21:00:26.465Z,4.73
2023-10-09T21:02:56.461Z,4.47
2023-10-09T21:05:26.122Z,4.77
2023-10-09T21:07:54.244Z,4.30
2023-10-09T21:10:23.962Z,4.20
2023-10-09T21:12:53.066Z,4.67
2023-10-09T21:15:22.673Z,4.53
2023-10-09T21:17:53.228Z,5.13
2023-10-09T21:20:22.009Z,4.93
2023-10-09T21:22:51.694Z,5.53
2023-10-09T21:25:21.723Z,5.40
2023-10-09T21:27:51.180Z,5.27
2023-10-09T21:30:18.985Z,5.80
2023-10-09T21:32:47.748Z,5.17
2023-10-09T21:35:18.152Z,5.93
2023-10-09T21:37:47.061Z,5.53
2023-10-09T21:40:15.375Z,5.93
2023-10-09T21:42:44.048Z,5.37
2023-10-09T21:45:13.596Z,5.50
2023-10-09T21:47:41.887Z,6.13
2023-10-09T21:50:09.805Z,5.60
2023-10-09T21:52:37.551Z,5.23
2023-10-09T21:55:05.693Z,5.53
2023-10-09T21:57:33.470Z,5.23
2023-10-09T22:00:01.154Z,5.50
2023-10-09T22:02:33.639Z,5.73
2023-10-09T22:05:01.560Z,5.43
2023-10-09T22:07:32.657Z,5.80
2023-10-09T22:10:00.900Z,5.70
2023-10-09T22:12:29.107Z,5.53
2023-10-09T22:14:56.841Z,6.00
2023-10-09T22:17:24.654Z,6.00
2023-10-09T22:19:54.654Z,6.27
2023-10-09T22:22:23.709Z,6.60
2023-10-09T22:24:52.405Z,5.60
2023-10-09T22:27:25.130Z,6.30
2023-10-09T22:29:54.448Z,6.33
2023-10-09T22:32:28.569Z,6.27
2023-10-09T22:34:58.670Z,5.73
2023-10-09T22:37:32.291Z,5.83
2023-10-09T22:40:01.313Z,6.20
2023-10-09T22:42:29.002Z,5.97
2023-10-09T22:44:57.458Z,5.70
2023-10-09T22:47:33.907Z,5.53
2023-10-09T22:50:19.180Z,5.80
2023-10-09T22:52:47.177Z,6.13
2023-10-09T22:55:17.823Z,5.80
2023-10-09T22:57:47.613Z,5.80
2023-10-09T23:00:36.883Z,5.73
2023-10-09T23:03:10.579Z,5.83
2023-10-09T23:05:46.455Z,5.30
2023-10-09T23:08:20.534Z,5.70
2023-10-09T23:10:53.408Z,5.57
2023-10-09T23:13:22.933Z,5.53
2023-10-09T23:16:07.890Z,6.30
2023-10-09T23:18:44.217Z,5.80
2023-10-09T23:21:27.670Z,5.53
2023-10-09T23:24:09.736Z,5.40
2023-10-09T23:26:53.244Z,5.63
2023-10-09T23:29:30.825Z,6.07
2023-10-09T23:32:22.167Z,5.93
2023-10-09T23:34:56.588Z,5.53
2023-10-09T23:37:55.427Z,5.23
2023-10-09T23:40:23.004Z,6.20
2023-10-09T23:42:58.674Z,5.70
2023-10-09T23:45:25.878Z,5.77
2023-10-09T23:47:53.696Z,5.37
2023-10-09T23:50:23.321Z,5.40
2023-10-09T23:52:54.579Z,6.00
2023-10-09T23:55:29.094Z,5.77
2023-10-09T23:57:59.657Z,5.70
